»·PEaware :: AAL7834 KSAN-KBUR

AAL7834 :: KSAN-KBUR

FLIGHT INFORMATION

Flight Status: Arrived
Operator:
American Airlines
More flights by this operator :: More flights under this callsign
Pilot: Sergei F. (8485)
Aircraft: AIRBUS A320
(A320)
More flights by this aircraft type
Origin: KSAN San Diego Intl-Lindbergh
United States
Destination: KBUR Bob Hope-Burbank
United States
More flights between these airports :: More routes between these airports
Route: +CWARD2 LAX SILEX
File this flight plan on PilotEdge
Remarks:
Altitude:
(Current/Filed)
10,000ft
Speed:
(Current/Filed)
400kts
Departed: 03-Jan-20 05:13 PM
Arrived: 03-Jan-20 05:46 PM
Distance/Time
Traveled:
105nm/0:33
Distance/Time
To Go:
Arrived

Flight Plot

Page will automatically refresh every two minutes.

Flight plan parsing failed; only flown route is shown


Map Options




Map Legend


Flown Route
Filed Route
Departure Airport
Arrival Airport
Navaid (VOR, NDB)
Fix

Horizontal Profiles

Position Reports

Time Latitude Longitude Heading Altitude Ground
Speed
03-Jan-20 16:44 32.733921 -117.200527 254 26ft 0kts
03-Jan-20 16:46 32.733921 -117.200527 254 26ft 0kts
03-Jan-20 16:46 32.733921 -117.200527 254 26ft 0kts
03-Jan-20 16:47 32.733921 -117.200527 254 26ft 0kts
03-Jan-20 16:48 32.733921 -117.200527 254 26ft 0kts
03-Jan-20 16:49 32.733921 -117.200527 254 26ft 0kts
03-Jan-20 16:50 32.733921 -117.200527 254 26ft 0kts
03-Jan-20 16:51 32.733921 -117.200527 254 26ft 0kts
03-Jan-20 16:52 32.733921 -117.200527 254 26ft 0kts
03-Jan-20 16:53 32.733921 -117.200527 254 26ft 0kts
03-Jan-20 16:54 32.733921 -117.200527 254 26ft 0kts
03-Jan-20 16:55 32.733921 -117.200527 254 26ft 0kts
03-Jan-20 16:56 32.733921 -117.200527 254 26ft 0kts
03-Jan-20 16:57 32.733921 -117.200527 254 26ft 0kts
03-Jan-20 16:58 32.733921 -117.200527 254 26ft 0kts
03-Jan-20 16:59 32.733946 -117.200419 254 26ft 2kts
03-Jan-20 17:00 32.733954 -117.199789 323 26ft 2kts
03-Jan-20 17:01 32.733697 -117.199748 13 26ft 0kts
03-Jan-20 17:02 32.733697 -117.199748 13 26ft 0kts
03-Jan-20 17:03 32.733697 -117.199748 13 26ft 0kts
03-Jan-20 17:04 32.733697 -117.199748 13 26ft 0kts
03-Jan-20 17:05 32.734699 -117.199334 57 26ft 8kts
03-Jan-20 17:06 32.734041 -117.195913 105 26ft 14kts
03-Jan-20 17:07 32.732778 -117.190714 105 26ft 19kts
03-Jan-20 17:08 32.731023 -117.183460 106 26ft 25kts
03-Jan-20 17:09 32.729581 -117.177524 105 26ft 4kts
03-Jan-20 17:10 32.729543 -117.176672 73 26ft 4kts
03-Jan-20 17:11 32.730290 -117.176208 285 26ft 10kts
03-Jan-20 17:12 32.740161 -117.212825 296 1478ft 185kts
03-Jan-20 17:13 32.772744 -117.270952 303 4625ft 253kts
03-Jan-20 17:14 32.815656 -117.343677 308 8327ft 279kts
03-Jan-20 17:15 32.863237 -117.417168 308 9981ft 283kts
03-Jan-20 17:16 32.913615 -117.495327 308 9986ft 317kts
03-Jan-20 17:17 32.967318 -117.578993 308 9985ft 328kts
03-Jan-20 17:18 33.026970 -117.672037 307 9981ft 360kts
03-Jan-20 17:19 33.093828 -117.760039 319 9981ft 360kts
03-Jan-20 17:20 33.168919 -117.836532 319 9982ft 360kts
03-Jan-20 17:21 33.260770 -117.878515 347 9985ft 362kts
03-Jan-20 17:22 33.359528 -117.903122 347 9944ft 358kts
03-Jan-20 17:23 33.435213 -117.957590 320 9698ft 294kts
03-Jan-20 17:24 33.494798 -118.014102 320 9140ft 256kts
03-Jan-20 17:25 33.547221 -118.063821 320 8622ft 227kts
03-Jan-20 17:26 33.596176 -118.110282 320 7655ft 224kts
03-Jan-20 17:27 33.643819 -118.155565 320 6724ft 221kts
03-Jan-20 17:28 33.691541 -118.201005 320 6020ft 218kts
03-Jan-20 17:29 33.739119 -118.246372 320 6014ft 217kts
03-Jan-20 17:30 33.786119 -118.291207 320 6015ft 216kts
03-Jan-20 17:31 33.833051 -118.336062 320 6016ft 216kts
03-Jan-20 17:32 33.878948 -118.380035 320 6017ft 216kts
03-Jan-20 17:33 33.925362 -118.424227 320 6016ft 217kts
03-Jan-20 17:34 33.973357 -118.466684 323 5397ft 215kts
03-Jan-20 17:35 34.021885 -118.508515 323 5017ft 216kts
03-Jan-20 17:36 34.070312 -118.550288 323 5016ft 215kts
03-Jan-20 17:37 34.124498 -118.568360 3 5012ft 221kts
03-Jan-20 17:38 34.182296 -118.561698 14 4999ft 203kts
03-Jan-20 17:39 34.224501 -118.521189 52 4403ft 208kts
03-Jan-20 17:40 34.254229 -118.472624 58 3520ft 173kts
03-Jan-20 17:41 34.269419 -118.424890 78 2626ft 139kts
03-Jan-20 17:42 34.262984 -118.382927 133 2036ft 133kts
03-Jan-20 17:43 34.230532 -118.365625 167 1311ft 131kts
03-Jan-20 17:44 34.198243 -118.356610 167 714ft 80kts
03-Jan-20 17:45 34.195906 -118.355353 1 709ft 6kts
03-Jan-20 17:46 34.197221 -118.354856 91 708ft 10kts
03-Jan-20 17:47 34.197019 -118.351974 157 703ft 6kts
03-Jan-20 17:48 34.196833 -118.351960 183 703ft 0kts
03-Jan-20 17:49 34.196833 -118.351960 183 703ft 0kts
03-Jan-20 17:50 34.196833 -118.351960 183 703ft 0kts
03-Jan-20 17:54 34.196833 -118.351960 183 703ft 0kts
03-Jan-20 17:55 34.196833 -118.351960 183 703ft 0kts
03-Jan-20 17:56 34.196833 -118.351960 183 703ft 0kts
03-Jan-20 17:57 34.196833 -118.351960 183 703ft 0kts
03-Jan-20 17:58 34.196833 -118.351960 183 703ft 0kts
03-Jan-20 17:59 34.196833 -118.351960 183 703ft 0kts

Navigation Log

Ident Type
Flight plan parsing failed, navigation log unavailable